createdAt,value
2023-01-19T00:00:49.628Z,-140.81
2023-01-19T00:05:51.653Z,-140.81
2023-01-19T00:10:53.181Z,-140.81
2023-01-19T00:15:54.726Z,-140.81
2023-01-19T00:20:56.206Z,-140.81
2023-01-19T00:25:57.654Z,-140.81
2023-01-19T00:30:59.077Z,-140.81
2023-01-19T00:36:00.584Z,-140.81
2023-01-19T00:41:02.030Z,-140.81
2023-01-19T00:46:03.513Z,-140.81
2023-01-19T00:51:05.259Z,-140.81
2023-01-19T00:56:07.116Z,-140.81
2023-01-19T01:01:08.684Z,-140.81
2023-01-19T01:06:10.285Z,-140.81
2023-01-19T01:11:11.717Z,-140.81
2023-01-19T01:16:16.296Z,-140.81
2023-01-19T01:21:17.789Z,-140.81
2023-01-19T01:26:19.225Z,-140.81
2023-01-19T01:31:20.733Z,-140.81
2023-01-19T01:36:22.581Z,-140.81
2023-01-19T01:41:25.461Z,-140.81
2023-01-19T01:46:31.207Z,-140.81
2023-01-19T01:51:43.858Z,-140.81
2023-01-19T01:56:48.097Z,-140.81
2023-01-19T02:02:07.855Z,-140.81
2023-01-19T02:07:32.886Z,-140.81
2023-01-19T02:12:53.510Z,-140.81
2023-01-19T02:17:54.953Z,-140.81
2023-01-19T02:23:01.665Z,-140.81
2023-01-19T02:28:04.203Z,-140.81
2023-01-19T02:33:05.675Z,-140.81
2023-01-19T02:38:08.503Z,-140.81
2023-01-19T02:43:10.245Z,-140.81
2023-01-19T02:48:11.991Z,-140.81
2023-01-19T02:53:31.865Z,-140.81
2023-01-19T02:58:51.819Z,-140.81
2023-01-19T03:04:11.449Z,-140.81
2023-01-19T03:09:29.456Z,-140.81
2023-01-19T03:14:37.149Z,-140.81
2023-01-19T03:19:43.848Z,-140.81
2023-01-19T03:24:47.750Z,-140.81
2023-01-19T03:29:55.013Z,-140.81
2023-01-19T03:35:00.868Z,-140.81
2023-01-19T03:40:02.304Z,-140.81
2023-01-19T03:45:04.556Z,-140.81
2023-01-19T03:50:13.621Z,-140.81
2023-01-19T03:55:15.205Z,-140.81
2023-01-19T04:00:16.934Z,-140.81
2023-01-19T04:05:19.110Z,-140.81
2023-01-19T04:10:22.713Z,-140.81
2023-01-19T04:15:24.621Z,-140.81
2023-01-19T04:20:28.104Z,-140.81
2023-01-19T04:25:29.609Z,-140.81
2023-01-19T04:30:31.139Z,-140.81
2023-01-19T04:35:34.175Z,-140.81
2023-01-19T04:40:35.584Z,-140.81
2023-01-19T04:45:37.326Z,-140.81
2023-01-19T04:50:39.220Z,-140.81
2023-01-19T04:55:40.839Z,-140.81
2023-01-19T05:00:43.846Z,-140.81
2023-01-19T05:05:46.127Z,-140.81
2023-01-19T05:10:48.022Z,-140.81
2023-01-19T05:15:50.312Z,-140.81
2023-01-19T05:20:51.827Z,-140.81
2023-01-19T05:25:55.167Z,-140.81
2023-01-19T05:30:56.627Z,-140.81
2023-01-19T05:35:58.146Z,-140.81
2023-01-19T05:40:59.615Z,-140.81
2023-01-19T05:46:01.116Z,-140.81
2023-01-19T05:51:02.660Z,-140.81
2023-01-19T05:56:08.421Z,-140.81
2023-01-19T06:01:10.806Z,-140.81
2023-01-19T06:06:14.865Z,-140.81
2023-01-19T06:11:16.309Z,-140.81
2023-01-19T06:16:17.784Z,-140.81
2023-01-19T06:21:19.513Z,-140.81
2023-01-19T06:29:43.611Z,1.78
2023-01-19T06:34:46.400Z,1.75
2023-01-19T06:39:47.988Z,1.79
2023-01-19T06:44:49.475Z,1.97
2023-01-19T06:49:50.915Z,1.93
2023-01-19T06:54:52.359Z,1.93
2023-01-19T06:59:53.865Z,1.84
2023-01-19T07:04:56.465Z,1.84
2023-01-19T07:09:58.077Z,1.99
2023-01-19T07:14:59.556Z,1.99
2023-01-19T07:20:01.667Z,1.99
2023-01-19T07:25:03.333Z,-140.81
2023-01-19T07:30:05.354Z,-140.81
2023-01-19T07:35:07.011Z,1.99
2023-01-19T07:40:09.035Z,1.99
2023-01-19T07:50:12.761Z,1.99
2023-01-19T07:55:14.251Z,-140.81
2023-01-19T08:00:16.129Z,-140.81
2023-01-19T08:05:18.988Z,2.13
2023-01-19T08:10:22.887Z,2.13
2023-01-19T08:15:24.684Z,2.28
2023-01-19T08:20:27.308Z,2.32
2023-01-19T08:25:33.710Z,2.47
2023-01-19T08:30:36.184Z,2.47
2023-01-19T08:35:40.783Z,2.47
2023-01-19T08:40:42.700Z,2.47
2023-01-19T08:45:50.240Z,2.46
2023-01-19T08:50:52.543Z,2.53
2023-01-19T08:55:57.379Z,2.49
2023-01-19T09:01:00.697Z,2.51
2023-01-19T09:06:07.533Z,2.51
2023-01-19T09:11:14.595Z,2.59
2023-01-19T09:16:16.183Z,2.59
2023-01-19T09:21:18.530Z,2.65
2023-01-19T09:26:22.120Z,2.65
2023-01-19T09:31:24.135Z,2.58
2023-01-19T09:36:25.619Z,2.58
2023-01-19T09:41:27.235Z,2.58
2023-01-19T09:46:40.354Z,2.58
2023-01-19T09:51:46.815Z,2.74
2023-01-19T09:56:52.502Z,2.94
2023-01-19T10:02:06.160Z,2.91
2023-01-19T10:07:35.271Z,3.08
2023-01-19T10:12:45.772Z,3.23
2023-01-19T10:18:14.627Z,3.23
2023-01-19T10:23:40.301Z,3.23
2023-01-19T10:28:42.376Z,3.27
2023-01-19T10:33:43.860Z,3.16
2023-01-19T10:38:45.909Z,3.68
2023-01-19T10:43:47.788Z,3.34
2023-01-19T10:48:51.753Z,3.31
2023-01-19T10:53:57.077Z,3.47
2023-01-19T10:59:00.678Z,3.48
2023-01-19T11:04:21.096Z,3.59
2023-01-19T11:09:23.411Z,3.77
2023-01-19T11:14:26.251Z,3.87
2023-01-19T11:19:33.204Z,3.84
2023-01-19T11:24:37.608Z,3.93
2023-01-19T11:29:39.197Z,3.91
2023-01-19T11:34:40.686Z,3.85
2023-01-19T11:39:51.065Z,3.95
2023-01-19T11:45:12.459Z,3.86
2023-01-19T11:50:28.658Z,3.87
2023-01-19T11:55:38.355Z,4.08
2023-01-19T12:00:45.132Z,4.10
2023-01-19T12:05:51.844Z,4.04
2023-01-19T12:10:57.701Z,3.92
2023-01-19T12:16:13.389Z,3.76
2023-01-19T12:21:14.877Z,3.79
2023-01-19T12:26:16.286Z,3.75
2023-01-19T12:31:19.857Z,3.68
2023-01-19T12:36:30.222Z,3.96
2023-01-19T12:41:34.356Z,4.14
2023-01-19T12:46:41.926Z,4.18
2023-01-19T12:51:43.753Z,4.06
2023-01-19T12:56:45.352Z,4.25
2023-01-19T13:02:25.288Z,4.29
2023-01-19T13:07:26.763Z,4.29
2023-01-19T13:12:28.913Z,4.39
2023-01-19T13:17:33.874Z,4.31
2023-01-19T13:22:50.350Z,4.46
2023-01-19T13:27:52.064Z,4.42
2023-01-19T13:33:03.270Z,4.45
2023-01-19T13:38:05.952Z,4.54
2023-01-19T13:43:18.033Z,4.51
2023-01-19T13:48:24.382Z,4.51
2023-01-19T13:53:26.382Z,4.24
2023-01-19T13:58:28.529Z,4.20
2023-01-19T14:03:30.126Z,4.10
2023-01-19T14:08:32.818Z,4.17
2023-01-19T14:13:40.072Z,3.93
2023-01-19T14:18:41.591Z,3.88
2023-01-19T14:23:48.794Z,3.75
2023-01-19T14:28:50.314Z,3.81
2023-01-19T14:33:55.282Z,3.73
2023-01-19T14:38:59.448Z,3.81
2023-01-19T14:44:02.817Z,3.73
2023-01-19T14:49:06.475Z,3.66
2023-01-19T14:54:17.378Z,3.73
2023-01-19T14:59:18.829Z,3.76
2023-01-19T15:04:20.264Z,3.87
2023-01-19T15:09:22.403Z,3.79
2023-01-19T15:14:23.957Z,3.85
2023-01-19T15:19:25.471Z,3.81
2023-01-19T15:24:26.900Z,3.92
2023-01-19T15:29:28.511Z,3.88
2023-01-19T15:34:29.953Z,3.78
2023-01-19T15:39:32.296Z,3.64
2023-01-19T15:44:33.756Z,3.68
2023-01-19T15:49:35.324Z,3.62
2023-01-19T15:54:36.769Z,4.90
2023-01-19T15:59:38.219Z,4.10
2023-01-19T16:04:39.678Z,3.97
2023-01-19T16:09:41.164Z,3.91
2023-01-19T16:14:42.637Z,3.89
2023-01-19T16:19:44.124Z,3.90
2023-01-19T16:24:45.617Z,3.79
2023-01-19T16:29:47.671Z,3.78
2023-01-19T16:34:49.229Z,3.66
2023-01-19T16:39:51.439Z,3.73
2023-01-19T16:44:54.460Z,3.86
2023-01-19T16:49:56.029Z,3.76
2023-01-19T16:54:57.511Z,3.59
2023-01-19T16:59:59.041Z,3.52
2023-01-19T17:05:00.592Z,4.01
2023-01-19T17:10:02.128Z,3.51
2023-01-19T17:15:03.812Z,3.51
2023-01-19T17:20:05.731Z,3.34
2023-01-19T17:25:07.880Z,3.36
2023-01-19T17:30:10.281Z,3.25
2023-01-19T17:35:11.929Z,3.15
2023-01-19T17:40:13.735Z,3.17
2023-01-19T17:45:19.247Z,3.10
2023-01-19T17:50:20.713Z,3.10
2023-01-19T17:55:22.162Z,3.04
2023-01-19T18:00:23.844Z,2.99
2023-01-19T18:05:25.278Z,2.97
2023-01-19T18:10:26.824Z,3.06
2023-01-19T18:15:29.186Z,2.96
2023-01-19T18:20:32.176Z,2.92
2023-01-19T18:25:33.633Z,2.98
2023-01-19T18:30:36.635Z,2.95
2023-01-19T18:35:38.855Z,2.87
2023-01-19T18:40:40.443Z,2.86
2023-01-19T18:45:42.148Z,2.74
2023-01-19T18:50:43.849Z,2.84
2023-01-19T18:55:56.920Z,2.76
2023-01-19T19:01:00.233Z,2.79
2023-01-19T19:06:03.382Z,2.85
2023-01-19T19:11:08.606Z,2.87
2023-01-19T19:16:12.647Z,2.90
2023-01-19T19:21:14.409Z,2.86
2023-01-19T19:26:15.859Z,2.84
2023-01-19T19:31:22.396Z,2.86
2023-01-19T19:36:26.754Z,2.81
2023-01-19T19:41:28.980Z,2.79
2023-01-19T19:46:30.481Z,2.90
2023-01-19T19:51:32.035Z,2.76
2023-01-19T19:56:34.324Z,2.76
2023-01-19T20:01:35.996Z,2.76
2023-01-19T20:06:44.394Z,2.83
2023-01-19T20:11:49.119Z,2.75
2023-01-19T20:16:50.673Z,2.70
2023-01-19T20:21:52.211Z,2.73
2023-01-19T20:26:54.645Z,2.68
2023-01-19T20:31:56.700Z,-140.81
2023-01-19T20:36:58.227Z,2.60
2023-01-19T20:41:59.745Z,2.56
2023-01-19T20:47:01.227Z,2.48
2023-01-19T20:52:03.235Z,2.52
2023-01-19T20:57:04.654Z,2.52
2023-01-19T21:02:12.274Z,2.44
2023-01-19T21:07:13.831Z,2.47
2023-01-19T21:12:15.969Z,2.46
2023-01-19T21:17:17.415Z,2.41
2023-01-19T21:22:18.937Z,2.31
2023-01-19T21:27:20.399Z,2.35
2023-01-19T21:32:21.969Z,2.35
2023-01-19T21:37:23.419Z,2.35
2023-01-19T21:42:24.938Z,2.41
2023-01-19T21:47:26.378Z,2.35
2023-01-19T21:52:27.831Z,2.33
2023-01-19T21:57:29.343Z,2.33
2023-01-19T22:02:38.648Z,2.33
2023-01-19T22:07:40.640Z,2.41
2023-01-19T22:12:42.113Z,2.42
2023-01-19T22:17:43.650Z,2.42
2023-01-19T22:22:45.265Z,2.34
2023-01-19T22:27:46.719Z,2.34
2023-01-19T22:32:48.261Z,2.33
2023-01-19T22:37:49.740Z,2.27
2023-01-19T22:42:51.231Z,2.21
2023-01-19T22:47:52.669Z,2.18
2023-01-19T22:52:57.760Z,2.21
2023-01-19T22:57:59.541Z,2.11
2023-01-19T23:03:00.979Z,2.05
2023-01-19T23:08:02.530Z,2.05
2023-01-19T23:13:03.980Z,2.05
2023-01-19T23:18:05.456Z,2.05
2023-01-19T23:23:06.975Z,-140.81
2023-01-19T23:28:08.634Z,2.05
2023-01-19T23:33:10.100Z,-140.81
2023-01-19T23:38:11.528Z,2.05
2023-01-19T23:43:13.145Z,-140.81
2023-01-19T23:53:15.953Z,-140.81
2023-01-19T23:58:17.407Z,-140.81
